createdAt,value
2018-03-15T00:01:04.851Z,20.98
2018-03-15T00:03:34.746Z,18.87
2018-03-15T00:06:04.918Z,17.77
2018-03-15T00:08:34.089Z,18.90
2018-03-15T00:11:04.327Z,20.92
2018-03-15T00:13:33.433Z,20.70
2018-03-15T00:16:02.518Z,19.57
2018-03-15T00:18:31.632Z,18.80
2018-03-15T00:21:00.722Z,18.63
2018-03-15T00:23:29.901Z,20.97
2018-03-15T00:25:59.026Z,19.00
2018-03-15T00:28:28.119Z,17.97
2018-03-15T00:30:57.224Z,19.52
2018-03-15T00:33:26.308Z,27.97
2018-03-15T00:35:55.428Z,21.33
2018-03-15T00:38:25.275Z,26.70
2018-03-15T00:40:55.155Z,23.37
2018-03-15T00:43:25.032Z,19.10
2018-03-15T00:45:54.150Z,19.27
2018-03-15T00:48:23.237Z,19.93
2018-03-15T00:50:53.853Z,23.00
2018-03-15T00:53:23.010Z,20.07
2018-03-15T00:55:52.167Z,23.90
2018-03-15T00:58:21.255Z,19.40
2018-03-15T01:00:50.357Z,18.20
2018-03-15T01:03:19.484Z,22.10
2018-03-15T01:05:49.394Z,20.93
2018-03-15T01:08:18.517Z,20.93
2018-03-15T01:10:47.590Z,24.87
2018-03-15T01:13:17.479Z,25.47
2018-03-15T01:15:46.577Z,21.43
2018-03-15T01:18:15.708Z,22.93
2018-03-15T01:20:45.569Z,23.10
2018-03-15T01:23:15.477Z,21.50
2018-03-15T01:25:44.563Z,22.07
2018-03-15T01:28:13.886Z,20.20
2018-03-15T01:30:42.986Z,21.60
2018-03-15T01:33:12.112Z,24.40
2018-03-15T01:35:41.963Z,21.55
2018-03-15T01:38:11.134Z,20.93
2018-03-15T01:40:41.123Z,22.25
2018-03-15T01:43:10.213Z,23.63
2018-03-15T01:45:39.326Z,31.23
2018-03-15T01:48:09.203Z,23.20
2018-03-15T01:50:38.435Z,24.10
2018-03-15T01:53:07.542Z,23.23
2018-03-15T01:55:37.405Z,22.40
2018-03-15T01:58:06.569Z,27.80
2018-03-15T02:00:36.444Z,23.97
2018-03-15T02:03:05.678Z,25.10
2018-03-15T02:05:35.548Z,23.80
2018-03-15T02:08:04.656Z,24.00
2018-03-15T02:10:33.761Z,23.17
2018-03-15T02:13:02.888Z,23.50
2018-03-15T02:15:32.043Z,27.20
2018-03-15T02:18:01.941Z,25.47
2018-03-15T02:20:31.047Z,23.07
2018-03-15T02:23:00.153Z,25.23
2018-03-15T02:25:29.277Z,25.90
2018-03-15T02:27:59.154Z,27.35
2018-03-15T02:30:28.241Z,24.20
2018-03-15T02:32:57.348Z,28.05
2018-03-15T02:35:26.508Z,23.93
2018-03-15T02:37:55.594Z,27.90
2018-03-15T02:40:24.702Z,24.40
2018-03-15T02:42:53.807Z,32.13
2018-03-15T02:45:22.964Z,26.90
2018-03-15T02:47:52.328Z,28.80
2018-03-15T02:50:36.035Z,28.23
2018-03-15T02:53:05.132Z,30.23
2018-03-15T02:55:34.590Z,27.90
2018-03-15T02:58:06.066Z,28.85
2018-03-15T03:00:37.810Z,30.57
2018-03-15T03:03:07.760Z,31.53
2018-03-15T03:05:36.920Z,30.10
2018-03-15T03:08:08.007Z,32.67
2018-03-15T03:10:40.766Z,31.60
2018-03-15T03:13:11.233Z,28.55
2018-03-15T03:15:40.330Z,31.70
2018-03-15T03:18:10.193Z,29.23
2018-03-15T03:20:39.498Z,33.97
2018-03-15T03:23:13.113Z,29.67
2018-03-15T03:25:42.225Z,33.10
2018-03-15T03:28:11.454Z,32.77
2018-03-15T03:30:42.516Z,33.90
2018-03-15T03:33:12.375Z,27.43
2018-03-15T03:38:35.066Z,32.73
2018-03-15T03:41:05.983Z,33.67
2018-03-15T03:46:10.932Z,34.33
2018-03-15T03:48:41.214Z,32.40
2018-03-15T03:51:12.185Z,35.63
2018-03-15T03:53:41.272Z,36.40
2018-03-15T03:56:17.578Z,37.10
2018-03-15T03:58:47.824Z,31.53
2018-03-15T04:14:52.750Z,38.07
2018-03-15T04:17:23.082Z,34.20
2018-03-15T04:20:00.601Z,35.63
2018-03-15T04:22:30.133Z,35.30
2018-03-15T04:24:59.237Z,44.30
2018-03-15T04:27:28.358Z,36.00
2018-03-15T04:29:57.452Z,36.97
2018-03-15T04:32:26.538Z,43.03
2018-03-15T04:34:58.163Z,46.80
2018-03-15T04:37:27.620Z,41.97
2018-03-15T04:40:03.282Z,39.77
2018-03-15T04:42:35.786Z,42.33
2018-03-15T04:45:06.497Z,43.70
2018-03-15T04:47:35.625Z,41.97
2018-03-15T04:50:04.792Z,39.47
2018-03-15T04:52:36.190Z,40.70
2018-03-15T04:55:05.293Z,46.90
2018-03-15T04:57:34.419Z,40.78
2018-03-15T05:00:06.755Z,40.95
2018-03-15T05:02:37.015Z,41.90
2018-03-15T05:05:06.898Z,42.07
2018-03-15T05:07:36.122Z,42.77
2018-03-15T05:10:05.216Z,43.73
2018-03-15T05:12:34.991Z,35.63
2018-03-15T05:15:06.183Z,39.65
2018-03-15T05:17:35.455Z,46.30
2018-03-15T05:20:06.197Z,41.78
2018-03-15T05:22:36.376Z,41.83
2018-03-15T05:25:05.490Z,46.97
2018-03-15T05:27:34.613Z,41.10
2018-03-15T05:30:05.598Z,42.33
2018-03-15T05:32:35.716Z,44.50
2018-03-15T05:35:06.327Z,46.33
2018-03-15T05:37:36.673Z,51.07
2018-03-15T05:53:19.512Z,46.60
2018-03-15T05:58:28.001Z,49.03
2018-03-15T06:00:59.590Z,51.07
2018-03-15T06:03:30.829Z,51.47
2018-03-15T06:05:59.938Z,45.93
2018-03-15T06:08:29.030Z,46.87
2018-03-15T06:10:58.353Z,43.00
2018-03-15T06:13:27.462Z,49.00
2018-03-15T06:15:57.527Z,47.90
2018-03-15T06:18:28.040Z,43.67
2018-03-15T06:20:57.151Z,47.27
2018-03-15T06:23:33.120Z,46.73
2018-03-15T06:26:04.674Z,43.60
2018-03-15T06:28:36.034Z,44.23
2018-03-15T06:31:05.149Z,48.53
2018-03-15T06:33:44.630Z,48.73
2018-03-15T06:36:13.841Z,44.40
2018-03-15T06:38:46.739Z,39.20
2018-03-15T06:41:15.826Z,44.77
2018-03-15T06:43:50.786Z,43.37
2018-03-15T06:46:22.238Z,47.73
2018-03-15T06:48:51.441Z,44.17
2018-03-15T06:51:20.521Z,43.20
2018-03-15T06:53:49.647Z,40.83
2018-03-15T06:56:18.750Z,44.30
2018-03-15T06:58:47.844Z,49.03
2018-03-15T07:01:16.972Z,42.67
2018-03-15T07:03:46.856Z,38.30
2018-03-15T07:06:18.648Z,40.23
2018-03-15T07:08:48.387Z,47.33
2018-03-15T07:11:17.750Z,38.80
2018-03-15T07:13:46.895Z,43.10
2018-03-15T07:16:16.409Z,43.97
2018-03-15T07:18:45.480Z,45.57
2018-03-15T07:21:16.014Z,41.13
2018-03-15T07:23:45.089Z,40.20
2018-03-15T07:26:14.680Z,41.07
2018-03-15T07:28:45.082Z,42.80
2018-03-15T07:31:15.928Z,43.45
2018-03-15T07:33:48.008Z,39.73
2018-03-15T07:36:17.870Z,35.53
2018-03-15T07:38:48.029Z,35.93
2018-03-15T07:41:28.542Z,42.33
2018-03-15T07:43:57.661Z,40.10
2018-03-15T07:46:26.736Z,40.10
2018-03-15T07:48:57.569Z,39.60
2018-03-15T07:51:28.894Z,35.27
2018-03-15T07:53:58.915Z,37.73
2018-03-15T07:56:29.813Z,34.10
2018-03-15T07:58:59.274Z,38.73
2018-03-15T08:01:30.473Z,40.47
2018-03-15T08:04:00.179Z,40.53
2018-03-15T08:06:30.024Z,37.23
2018-03-15T08:08:59.919Z,34.27
2018-03-15T08:11:29.384Z,39.83
2018-03-15T08:14:00.935Z,37.80
2018-03-15T08:16:30.882Z,40.10
2018-03-15T08:19:00.454Z,36.97
2018-03-15T08:21:29.573Z,35.97
2018-03-15T08:23:59.354Z,38.30
2018-03-15T08:26:29.434Z,35.00
2018-03-15T08:29:00.103Z,38.43
2018-03-15T08:31:33.039Z,36.53
2018-03-15T08:34:02.247Z,39.37
2018-03-15T08:36:34.057Z,38.97
2018-03-15T08:39:03.148Z,35.57
2018-03-15T08:41:32.354Z,35.53
2018-03-15T08:44:03.299Z,34.77
2018-03-15T08:46:34.835Z,31.00
2018-03-15T08:49:05.258Z,36.60
2018-03-15T08:51:34.352Z,33.60
2018-03-15T08:54:12.428Z,41.53
2018-03-15T08:56:46.992Z,30.33
2018-03-15T08:59:19.762Z,30.45
2018-03-15T09:01:49.146Z,35.00
2018-03-15T09:04:22.669Z,31.95
2018-03-15T09:06:54.478Z,34.95
2018-03-15T09:09:23.889Z,37.53
2018-03-15T09:11:54.571Z,27.13
2018-03-15T09:14:26.736Z,29.83
2018-03-15T09:16:56.167Z,31.07
2018-03-15T09:19:27.638Z,29.43
2018-03-15T09:21:57.602Z,30.63
2018-03-15T09:24:27.296Z,30.47
2018-03-15T09:26:56.690Z,29.93
2018-03-15T09:29:26.002Z,29.97
2018-03-15T09:31:55.878Z,32.10
2018-03-15T09:34:26.555Z,29.00
2018-03-15T09:36:56.248Z,29.70
2018-03-15T09:39:25.854Z,27.63
2018-03-15T09:41:55.898Z,28.03
2018-03-15T09:44:25.282Z,26.17
2018-03-15T09:46:55.875Z,26.33
2018-03-15T09:49:25.026Z,30.88
2018-03-15T09:51:54.153Z,27.77
2018-03-15T09:54:23.278Z,23.97
2018-03-15T09:56:53.183Z,25.97
2018-03-15T09:59:23.110Z,26.67
2018-03-15T10:01:53.008Z,27.90
2018-03-15T10:04:22.116Z,23.50
2018-03-15T10:06:52.034Z,26.53
2018-03-15T10:09:21.916Z,26.90
2018-03-15T10:11:51.050Z,25.27
2018-03-15T10:14:20.923Z,24.67
2018-03-15T10:16:50.050Z,23.10
2018-03-15T10:19:19.159Z,24.43
2018-03-15T10:21:49.084Z,21.10
2018-03-15T10:24:18.944Z,25.80
2018-03-15T10:26:48.055Z,23.73
2018-03-15T10:29:17.186Z,25.03
2018-03-15T10:31:47.053Z,23.30
2018-03-15T10:34:16.180Z,30.00
2018-03-15T10:36:46.085Z,27.83
2018-03-15T10:39:15.206Z,24.63
2018-03-15T10:41:45.088Z,31.47
2018-03-15T10:44:14.258Z,24.58
2018-03-15T10:46:43.389Z,26.70
2018-03-15T10:49:12.504Z,21.13
2018-03-15T10:51:42.399Z,27.27
2018-03-15T10:54:13.782Z,26.90
2018-03-15T10:56:42.893Z,23.23
2018-03-15T10:59:12.027Z,22.58
2018-03-15T11:01:46.537Z,35.40
2018-03-15T11:04:15.694Z,23.53
2018-03-15T11:06:50.351Z,21.70
2018-03-15T11:09:23.320Z,22.70
2018-03-15T11:11:52.477Z,24.47
2018-03-15T11:14:21.574Z,21.95
2018-03-15T11:16:51.895Z,21.53
2018-03-15T11:19:22.792Z,20.58
2018-03-15T11:21:52.131Z,23.53
2018-03-15T11:24:25.611Z,21.65
2018-03-15T11:26:55.287Z,23.20
2018-03-15T11:29:31.526Z,22.20
2018-03-15T11:32:01.704Z,25.97
2018-03-15T11:34:32.252Z,22.80
2018-03-15T11:37:01.383Z,19.70
2018-03-15T11:39:30.582Z,24.23
2018-03-15T11:42:00.226Z,25.00
2018-03-15T11:44:30.356Z,23.77
2018-03-15T11:46:59.461Z,22.23
2018-03-15T11:49:28.584Z,19.77
2018-03-15T11:51:58.484Z,23.07
2018-03-15T11:54:27.609Z,21.43
2018-03-15T11:56:57.507Z,20.97
2018-03-15T11:59:27.398Z,25.33
2018-03-15T12:01:56.534Z,16.97
2018-03-15T12:04:25.926Z,18.67
2018-03-15T12:06:55.814Z,21.03
2018-03-15T12:09:24.969Z,16.83
2018-03-15T12:11:54.071Z,24.63
2018-03-15T12:14:23.206Z,20.40
2018-03-15T12:16:57.076Z,17.43
2018-03-15T12:19:27.217Z,21.90
2018-03-15T12:21:56.355Z,15.83
2018-03-15T12:24:25.491Z,16.13
2018-03-15T12:26:54.609Z,17.57
2018-03-15T12:29:23.743Z,23.97
2018-03-15T12:31:53.634Z,18.03
2018-03-15T12:34:22.762Z,16.67
2018-03-15T12:36:52.650Z,16.20
2018-03-15T12:39:21.838Z,18.30
2018-03-15T12:41:50.947Z,19.33
2018-03-15T12:44:20.103Z,16.67
2018-03-15T12:46:49.214Z,15.53
2018-03-15T12:49:18.331Z,17.73
2018-03-15T12:51:49.666Z,18.23
2018-03-15T12:54:20.392Z,17.57
2018-03-15T12:57:01.346Z,22.37
2018-03-15T12:59:32.192Z,17.73
2018-03-15T13:02:01.635Z,16.55
2018-03-15T13:04:33.766Z,13.87
2018-03-15T13:10:13.356Z,17.33
2018-03-15T13:12:44.847Z,14.23
2018-03-15T13:15:16.917Z,13.13
2018-03-15T13:17:48.578Z,15.43
2018-03-15T13:20:22.259Z,14.93
2018-03-15T13:22:53.073Z,23.50
2018-03-15T13:25:23.137Z,13.70
2018-03-15T13:27:53.372Z,13.53
2018-03-15T13:30:26.073Z,10.85
2018-03-15T13:32:59.197Z,12.83
2018-03-15T13:35:28.894Z,11.30
2018-03-15T13:37:58.009Z,11.50
2018-03-15T13:40:28.779Z,12.23
2018-03-15T13:42:59.121Z,19.10
2018-03-15T13:45:30.535Z,11.20
2018-03-15T13:48:00.731Z,11.97
2018-03-15T13:50:30.498Z,16.03
2018-03-15T13:53:00.094Z,14.30
2018-03-15T13:55:30.078Z,17.67
2018-03-15T13:57:59.214Z,13.50
2018-03-15T14:00:28.818Z,12.53
2018-03-15T14:02:58.808Z,16.10
2018-03-15T14:05:27.983Z,15.43
2018-03-15T14:07:57.124Z,17.80
2018-03-15T14:10:27.443Z,15.53
2018-03-15T14:13:03.226Z,14.87
2018-03-15T14:15:33.004Z,12.20
2018-03-15T14:18:02.107Z,15.93
2018-03-15T14:20:31.238Z,21.70
2018-03-15T14:23:01.864Z,19.20
2018-03-15T14:25:31.261Z,20.40
2018-03-15T14:28:00.387Z,20.10
2018-03-15T14:30:32.508Z,20.50
2018-03-15T14:33:04.735Z,18.67
2018-03-15T14:35:33.857Z,20.10
2018-03-15T14:38:04.838Z,22.37
2018-03-15T14:40:34.746Z,19.13
2018-03-15T14:43:05.790Z,22.30
2018-03-15T14:45:35.270Z,20.93
2018-03-15T14:48:06.465Z,26.30
2018-03-15T14:50:35.834Z,18.37
2018-03-15T14:53:09.845Z,24.70
2018-03-15T14:55:41.990Z,21.83
2018-03-15T14:58:14.029Z,21.05
2018-03-15T15:03:33.134Z,27.20
2018-03-15T15:06:03.271Z,24.40
2018-03-15T15:08:32.364Z,21.33
2018-03-15T15:11:01.848Z,23.73
2018-03-15T15:13:31.751Z,21.50
2018-03-15T15:16:01.673Z,24.00
2018-03-15T15:18:31.605Z,25.90
2018-03-15T15:21:00.714Z,22.87
2018-03-15T15:23:29.861Z,23.63
2018-03-15T15:25:59.008Z,23.67
2018-03-15T15:28:28.153Z,25.80
2018-03-15T15:30:57.363Z,21.80
2018-03-15T15:33:26.525Z,24.70
2018-03-15T15:35:55.711Z,22.40
2018-03-15T15:38:24.883Z,24.77
2018-03-15T15:40:54.106Z,23.30
2018-03-15T15:43:23.265Z,29.60
2018-03-15T15:45:52.417Z,25.67
2018-03-15T15:48:21.557Z,22.80
2018-03-15T15:50:51.506Z,25.63
2018-03-15T15:53:20.640Z,31.00
2018-03-15T15:55:49.837Z,25.50
2018-03-15T15:58:18.986Z,29.80
2018-03-15T16:00:48.890Z,25.63
2018-03-15T16:03:18.067Z,29.63
2018-03-15T16:05:47.656Z,29.40
2018-03-15T16:08:16.828Z,25.83
2018-03-15T16:10:46.755Z,24.20
2018-03-15T16:13:16.049Z,29.93
2018-03-15T16:15:45.246Z,25.50
2018-03-15T16:18:14.455Z,28.62
2018-03-15T16:20:43.613Z,26.80
2018-03-15T16:23:12.867Z,32.92
2018-03-15T16:25:42.832Z,33.80
2018-03-15T16:28:12.709Z,24.73
2018-03-15T16:30:41.851Z,26.37
2018-03-15T16:33:11.022Z,25.33
2018-03-15T16:35:40.929Z,22.80
2018-03-15T16:38:10.951Z,23.35
2018-03-15T16:40:40.147Z,29.07
2018-03-15T16:43:09.312Z,29.53
2018-03-15T16:45:38.434Z,29.10
2018-03-15T16:48:07.591Z,29.50
2018-03-15T16:50:36.713Z,28.40
2018-03-15T16:53:06.677Z,39.97
2018-03-15T16:55:35.847Z,36.10
2018-03-15T16:58:05.779Z,37.63
2018-03-15T17:00:35.667Z,23.80
2018-03-15T17:03:05.793Z,21.48
2018-03-15T17:05:34.944Z,22.80
2018-03-15T17:08:04.064Z,24.10
2018-03-15T17:10:34.018Z,21.23
2018-03-15T17:13:03.920Z,21.30
2018-03-15T17:15:33.839Z,23.73
2018-03-15T17:18:03.719Z,22.53
2018-03-15T17:20:32.878Z,19.33
2018-03-15T17:23:02.006Z,23.10
2018-03-15T17:25:31.166Z,24.00
2018-03-15T17:28:01.029Z,28.57
2018-03-15T17:30:30.181Z,30.13
2018-03-15T17:32:59.311Z,26.07
2018-03-15T17:35:28.438Z,25.67
2018-03-15T17:37:57.629Z,28.67
2018-03-15T17:40:26.762Z,24.97
2018-03-15T17:42:55.905Z,31.77
2018-03-15T17:45:25.093Z,27.53
2018-03-15T17:47:54.248Z,30.03
2018-03-15T17:50:24.137Z,26.07
2018-03-15T17:52:53.276Z,27.33
2018-03-15T17:55:22.438Z,28.63
2018-03-15T17:57:51.613Z,34.93
2018-03-15T18:00:20.714Z,30.97
2018-03-15T18:02:49.856Z,30.47
2018-03-15T18:05:19.001Z,35.03
2018-03-15T18:07:48.133Z,40.27
2018-03-15T18:10:17.293Z,40.03
2018-03-15T18:12:47.199Z,39.93
2018-03-15T18:15:16.427Z,59.70
2018-03-15T18:17:45.561Z,66.53
2018-03-15T18:20:14.698Z,54.50
2018-03-15T18:22:43.897Z,49.47
2018-03-15T18:25:13.858Z,44.03
2018-03-15T18:27:43.757Z,37.65
2018-03-15T18:30:12.868Z,45.65
2018-03-15T18:32:45.398Z,44.80
2018-03-15T18:35:15.465Z,49.50
2018-03-15T18:37:45.233Z,60.90
2018-03-15T18:40:14.446Z,48.33
2018-03-15T18:42:44.640Z,44.33
2018-03-15T18:45:14.914Z,39.37
2018-03-15T18:47:44.843Z,42.47
2018-03-15T18:50:14.746Z,40.17
2018-03-15T18:52:44.665Z,30.10
2018-03-15T18:55:14.568Z,36.53
2018-03-15T18:57:44.007Z,31.57
2018-03-15T19:00:13.123Z,26.97
2018-03-15T19:02:42.397Z,30.80
2018-03-15T19:05:11.509Z,30.60
2018-03-15T19:07:40.662Z,29.50
2018-03-15T19:10:09.813Z,30.00
2018-03-15T19:12:38.944Z,34.20
2018-03-15T19:15:09.016Z,32.00
2018-03-15T19:17:38.186Z,41.40
2018-03-15T19:20:09.701Z,35.90
2018-03-15T19:22:39.691Z,39.35
2018-03-15T19:25:09.299Z,39.43
2018-03-15T19:27:38.652Z,38.77
2018-03-15T19:30:08.539Z,42.27
2018-03-15T19:32:38.516Z,36.77
2018-03-15T19:35:09.802Z,38.60
2018-03-15T19:37:39.529Z,39.13
2018-03-15T19:40:10.341Z,42.10
2018-03-15T19:42:39.646Z,38.83
2018-03-15T19:45:09.652Z,42.87
2018-03-15T19:47:38.896Z,40.33
2018-03-15T19:50:09.770Z,38.17
2018-03-15T19:52:39.687Z,44.37
2018-03-15T19:55:09.543Z,37.37
2018-03-15T19:57:41.117Z,40.57
2018-03-15T20:00:11.998Z,42.40
2018-03-15T20:02:42.096Z,45.43
2018-03-15T20:05:12.080Z,43.04
2018-03-15T20:07:42.844Z,39.33
2018-03-15T20:10:12.190Z,44.03
2018-03-15T20:12:41.401Z,43.07
2018-03-15T20:15:11.200Z,46.35
2018-03-15T20:17:40.474Z,45.60
2018-03-15T20:20:10.680Z,40.83
2018-03-15T20:22:45.767Z,43.73
2018-03-15T20:25:14.897Z,40.63
2018-03-15T20:27:50.338Z,46.53
2018-03-15T20:30:20.166Z,42.60
2018-03-15T20:32:55.702Z,45.63
2018-03-15T20:35:27.464Z,48.63
2018-03-15T20:37:58.757Z,46.33
2018-03-15T20:53:53.068Z,42.00
2018-03-15T20:56:22.690Z,43.83
2018-03-15T20:58:52.113Z,42.20
2018-03-15T21:01:22.316Z,43.05
2018-03-15T21:03:52.590Z,43.20
2018-03-15T21:06:22.157Z,40.70
2018-03-15T21:08:52.071Z,50.40
2018-03-15T21:11:21.968Z,43.60
2018-03-15T21:13:51.271Z,37.63
2018-03-15T21:16:21.049Z,39.30
2018-03-15T21:18:50.215Z,45.73
2018-03-15T21:21:19.719Z,44.73
2018-03-15T21:23:48.908Z,39.77
2018-03-15T21:26:18.904Z,49.42
2018-03-15T21:28:48.880Z,39.30
2018-03-15T21:31:18.303Z,47.40
2018-03-15T21:33:47.664Z,40.37
2018-03-15T21:36:16.805Z,41.70
2018-03-15T21:38:45.933Z,44.03
2018-03-15T21:41:16.619Z,36.93
2018-03-15T21:43:46.505Z,37.13
2018-03-15T21:46:15.621Z,41.40
2018-03-15T21:48:44.715Z,38.07
2018-03-15T21:51:13.833Z,42.47
2018-03-15T21:53:42.936Z,40.13
2018-03-15T21:56:12.045Z,37.35
2018-03-15T21:58:41.139Z,37.27
2018-03-15T22:01:10.285Z,39.13
2018-03-15T22:03:40.168Z,39.80
2018-03-15T22:06:10.105Z,41.30
2018-03-15T22:08:39.192Z,35.90
2018-03-15T22:11:08.310Z,41.90
2018-03-15T22:13:37.447Z,43.17
2018-03-15T22:16:06.564Z,37.10
2018-03-15T22:18:36.463Z,35.35
2018-03-15T22:21:06.526Z,46.35
2018-03-15T22:23:35.633Z,37.60
2018-03-15T22:26:04.725Z,40.73
2018-03-15T22:28:33.834Z,41.50
2018-03-15T22:31:02.928Z,35.70
2018-03-15T22:33:32.047Z,36.03
2018-03-15T22:36:01.148Z,36.70
2018-03-15T22:38:30.261Z,36.53
2018-03-15T22:41:00.117Z,37.47
2018-03-15T22:43:29.245Z,38.10
2018-03-15T22:45:58.366Z,40.33
2018-03-15T22:48:27.485Z,35.77
2018-03-15T22:50:57.324Z,35.07
2018-03-15T22:53:26.436Z,31.83
2018-03-15T22:55:55.534Z,34.27
2018-03-15T22:58:25.442Z,35.13
2018-03-15T23:00:54.561Z,30.80
2018-03-15T23:03:23.635Z,40.70
2018-03-15T23:05:52.751Z,39.63
2018-03-15T23:08:21.835Z,36.73
2018-03-15T23:10:51.735Z,37.37
2018-03-15T23:13:20.813Z,34.10
2018-03-15T23:15:49.927Z,33.70
2018-03-15T23:18:19.051Z,37.83
2018-03-15T23:20:48.169Z,36.33
2018-03-15T23:23:17.250Z,32.77
2018-03-15T23:25:46.377Z,36.17
2018-03-15T23:28:15.485Z,34.03
2018-03-15T23:30:44.583Z,29.90
2018-03-15T23:33:13.697Z,39.70
2018-03-15T23:35:42.817Z,30.20
2018-03-15T23:38:11.935Z,35.13
2018-03-15T23:40:41.046Z,34.53
2018-03-15T23:43:10.909Z,32.00
2018-03-15T23:45:40.021Z,28.37
2018-03-15T23:48:09.282Z,32.60
2018-03-15T23:50:39.147Z,30.10
2018-03-15T23:53:08.257Z,27.27
2018-03-15T23:55:38.114Z,29.13
2018-03-15T23:58:07.214Z,27.70
